createdAt,value
2023-03-18T00:01:16.241Z,-66
2023-03-18T00:06:19.876Z,-65
2023-03-18T00:11:21.704Z,-64
2023-03-18T00:16:23.571Z,-64
2023-03-18T00:21:25.269Z,-65
2023-03-18T00:26:28.578Z,-65
2023-03-18T00:31:30.453Z,-66
2023-03-18T00:36:32.427Z,-65
2023-03-18T00:41:36.428Z,-66
2023-03-18T00:46:38.459Z,-65
2023-03-18T00:51:42.189Z,-64
2023-03-18T00:56:43.942Z,-66
2023-03-18T01:01:45.498Z,-63
2023-03-18T01:06:47.025Z,-62
2023-03-18T01:11:48.513Z,-65
2023-03-18T01:16:50.050Z,-65
2023-03-18T01:21:51.706Z,-64
2023-03-18T01:26:53.883Z,-65
2023-03-18T01:31:55.915Z,-65
2023-03-18T01:36:58.288Z,-65
2023-03-18T01:42:00.736Z,-65
2023-03-18T01:47:03.463Z,-64
2023-03-18T01:52:27.250Z,-65
2023-03-18T01:57:30.149Z,-64
2023-03-18T02:02:34.067Z,-64
2023-03-18T02:07:37.171Z,-66
2023-03-18T02:12:42.323Z,-65
2023-03-18T02:17:53.634Z,-68
2023-03-18T02:23:03.507Z,-66
2023-03-18T02:28:10.773Z,-66
2023-03-18T02:33:15.103Z,-66
2023-03-18T02:38:16.522Z,-65
2023-03-18T02:43:18.046Z,-64
2023-03-18T02:48:23.776Z,-65
2023-03-18T02:53:26.319Z,-66
2023-03-18T02:58:28.272Z,-65
2023-03-18T03:03:29.969Z,-67
2023-03-18T03:08:31.962Z,-65
2023-03-18T03:13:33.698Z,-67
2023-03-18T03:18:35.658Z,-65
2023-03-18T03:23:38.058Z,-64
2023-03-18T03:28:39.869Z,-64
2023-03-18T03:33:43.572Z,-64
2023-03-18T03:38:45.997Z,-64
2023-03-18T03:43:47.577Z,-63
2023-03-18T03:48:49.812Z,-64
2023-03-18T03:53:51.498Z,-64
2023-03-18T03:58:53.614Z,-64
2023-03-18T04:03:55.793Z,-64
2023-03-18T04:08:57.342Z,-64
2023-03-18T04:13:58.885Z,-64
2023-03-18T04:19:00.466Z,-64
2023-03-18T04:24:03.980Z,-64
2023-03-18T04:29:05.737Z,-64
2023-03-18T04:34:07.285Z,-64
2023-03-18T04:39:10.439Z,-64
2023-03-18T04:44:11.999Z,-64
2023-03-18T04:49:13.552Z,-63
2023-03-18T04:54:15.092Z,-64
2023-03-18T04:59:17.079Z,-63
2023-03-18T05:04:18.691Z,-64
2023-03-18T05:09:20.237Z,-64
2023-03-18T05:14:22.101Z,-64
2023-03-18T05:19:25.311Z,-66
2023-03-18T05:24:27.507Z,-66
2023-03-18T05:29:29.085Z,-64
2023-03-18T05:34:31.472Z,-64
2023-03-18T05:39:33.920Z,-66
2023-03-18T05:44:35.800Z,-66
2023-03-18T05:49:37.626Z,-65
2023-03-18T05:54:39.554Z,-64
2023-03-18T05:59:41.465Z,-65
2023-03-18T06:04:43.010Z,-63
2023-03-18T06:09:44.690Z,-67
2023-03-18T06:14:46.670Z,-63
2023-03-18T06:19:48.336Z,-63
2023-03-18T06:24:49.826Z,-63
2023-03-18T06:29:51.504Z,-63
2023-03-18T06:34:52.994Z,-63
2023-03-18T06:39:54.575Z,-65
2023-03-18T06:44:56.048Z,-64
2023-03-18T06:49:58.050Z,-66
2023-03-18T06:55:00.438Z,-65
2023-03-18T07:00:02.695Z,-61
2023-03-18T07:05:04.688Z,-62
2023-03-18T07:10:09.305Z,-62
2023-03-18T07:15:11.716Z,-66
2023-03-18T07:20:14.041Z,-65
2023-03-18T07:25:15.586Z,-59
2023-03-18T07:30:18.891Z,-67
2023-03-18T07:35:20.711Z,-67
2023-03-18T07:40:23.569Z,-63
2023-03-18T07:45:25.668Z,-66
2023-03-18T07:50:27.938Z,-65
2023-03-18T07:55:29.510Z,-67
2023-03-18T08:00:39.267Z,-65
2023-03-18T08:05:41.333Z,-66
2023-03-18T08:10:42.970Z,-64
2023-03-18T08:15:44.572Z,-67
2023-03-18T08:20:46.078Z,-65
2023-03-18T08:25:52.194Z,-68
2023-03-18T08:30:56.064Z,-67
2023-03-18T08:35:58.099Z,-74
2023-03-18T08:40:59.794Z,-73
2023-03-18T08:46:01.427Z,-71
2023-03-18T08:51:04.893Z,-74
2023-03-18T08:56:07.875Z,-66
2023-03-18T09:01:11.904Z,-68
2023-03-18T09:06:14.279Z,-70
2023-03-18T09:11:16.352Z,-66
2023-03-18T09:16:18.512Z,-67
2023-03-18T09:21:20.320Z,-69
2023-03-18T09:26:22.007Z,-71
2023-03-18T09:31:23.552Z,-68
2023-03-18T09:36:25.124Z,-67
2023-03-18T09:41:32.648Z,-68
2023-03-18T09:47:00.675Z,-67
2023-03-18T09:52:23.753Z,-68
2023-03-18T09:57:46.161Z,-67
2023-03-18T10:02:56.468Z,-69
2023-03-18T10:08:05.775Z,-71
2023-03-18T10:13:23.025Z,-67
2023-03-18T10:18:34.707Z,-68
2023-03-18T10:23:52.573Z,-71
2023-03-18T10:29:12.218Z,-72
2023-03-18T10:34:23.781Z,-71
2023-03-18T10:39:27.700Z,-71
2023-03-18T10:44:36.843Z,-71
2023-03-18T10:49:47.385Z,-72
2023-03-18T10:54:52.680Z,-74
2023-03-18T10:59:54.662Z,-70
2023-03-18T11:05:06.832Z,-73
2023-03-18T11:10:15.213Z,-73
2023-03-18T11:15:20.500Z,-74
2023-03-18T11:20:32.090Z,-74
2023-03-18T11:25:34.021Z,-75
2023-03-18T11:30:50.230Z,-69
2023-03-18T11:35:58.708Z,-74
2023-03-18T11:41:17.009Z,-77
2023-03-18T11:46:19.056Z,-73
2023-03-18T11:51:46.661Z,-72
2023-03-18T11:56:54.087Z,-73
2023-03-18T12:02:17.614Z,-72
2023-03-18T12:07:43.800Z,-73
2023-03-18T12:12:54.584Z,-75
2023-03-18T12:18:25.678Z,-74
2023-03-18T12:23:54.690Z,-75
2023-03-18T12:29:22.358Z,-74
2023-03-18T12:35:02.766Z,-72
2023-03-18T12:40:34.180Z,-72
2023-03-18T12:45:40.897Z,-73
2023-03-18T12:50:54.707Z,-72
2023-03-18T12:56:04.921Z,-74
2023-03-18T13:01:18.172Z,-73
2023-03-18T13:06:36.012Z,-72
2023-03-18T13:12:12.571Z,-72
2023-03-18T13:17:20.673Z,-72
2023-03-18T13:23:10.014Z,-72
2023-03-18T13:28:42.609Z,-71
2023-03-18T13:33:59.245Z,-71
2023-03-18T13:39:15.512Z,-73
2023-03-18T13:44:31.958Z,-75
2023-03-18T13:49:34.136Z,-74
2023-03-18T13:54:38.733Z,-73
2023-03-18T13:59:40.198Z,-74
2023-03-18T14:04:48.096Z,-74
2023-03-18T14:09:52.481Z,-72
2023-03-18T14:15:03.645Z,-73
2023-03-18T14:20:21.906Z,-72
2023-03-18T14:25:39.499Z,-75
2023-03-18T14:31:00.919Z,-72
2023-03-18T14:36:10.318Z,-73
2023-03-18T14:41:37.183Z,-73
2023-03-18T14:46:43.050Z,-72
2023-03-18T14:51:55.832Z,-73
2023-03-18T14:56:58.120Z,-71
2023-03-18T15:02:03.387Z,-73
2023-03-18T15:07:08.241Z,-74
2023-03-18T15:12:19.538Z,-74
2023-03-18T15:17:27.427Z,-74
2023-03-18T15:22:31.513Z,-75
2023-03-18T15:27:35.105Z,-69
2023-03-18T15:32:49.921Z,-68
2023-03-18T15:38:28.759Z,-74
2023-03-18T15:43:30.491Z,-73
2023-03-18T15:48:54.948Z,-72
2023-03-18T15:54:09.407Z,-77
2023-03-18T15:59:18.758Z,-75
2023-03-18T16:04:21.746Z,-73
2023-03-18T16:09:25.365Z,-68
2023-03-18T16:14:39.680Z,-67
2023-03-18T16:19:41.494Z,-67
2023-03-18T16:24:43.945Z,-68
2023-03-18T16:29:45.462Z,-68
2023-03-18T16:34:47.489Z,-67
2023-03-18T16:39:49.084Z,-65
2023-03-18T16:44:51.704Z,-66
2023-03-18T16:49:54.450Z,-66
2023-03-18T16:54:56.017Z,-67
2023-03-18T16:59:58.984Z,-67
2023-03-18T17:05:01.787Z,-70
2023-03-18T17:10:04.000Z,-68
2023-03-18T17:15:07.419Z,-68
2023-03-18T17:20:21.113Z,-68
2023-03-18T17:25:27.236Z,-68
2023-03-18T17:30:44.504Z,-66
2023-03-18T17:35:46.182Z,-66
2023-03-18T17:40:49.170Z,-67
2023-03-18T17:45:50.802Z,-65
2023-03-18T17:50:55.777Z,-66
2023-03-18T17:55:57.714Z,-66
2023-03-18T18:01:17.559Z,-67
2023-03-18T18:06:29.285Z,-66
2023-03-18T18:11:35.516Z,-66
2023-03-18T18:16:37.595Z,-66
2023-03-18T18:21:39.500Z,-67
2023-03-18T18:26:41.049Z,-66
2023-03-18T18:31:44.920Z,-67
2023-03-18T18:36:46.673Z,-68
2023-03-18T18:41:48.869Z,-67
2023-03-18T18:46:50.791Z,-67
2023-03-18T18:51:55.068Z,-67
2023-03-18T18:56:58.711Z,-66
2023-03-18T19:02:01.099Z,-67
2023-03-18T19:07:06.562Z,-68
2023-03-18T19:12:15.612Z,-69
2023-03-18T19:17:20.000Z,-69
2023-03-18T19:22:22.215Z,-66
2023-03-18T19:27:27.604Z,-66
2023-03-18T19:32:29.239Z,-70
2023-03-18T19:37:32.680Z,-66
2023-03-18T19:42:35.418Z,-67
2023-03-18T19:47:37.515Z,-67
2023-03-18T19:52:39.027Z,-67
2023-03-18T19:57:41.671Z,-67
2023-03-18T20:02:43.859Z,-67
2023-03-18T20:07:46.366Z,-66
2023-03-18T20:12:49.481Z,-67
2023-03-18T20:17:51.930Z,-67
2023-03-18T20:23:03.572Z,-66
2023-03-18T20:28:06.447Z,-68
2023-03-18T20:33:08.380Z,-68
2023-03-18T20:38:22.185Z,-67
2023-03-18T20:43:27.893Z,-67
2023-03-18T20:48:29.474Z,-68
2023-03-18T20:53:31.767Z,-68
2023-03-18T20:58:33.372Z,-68
2023-03-18T21:03:35.511Z,-68
2023-03-18T21:08:37.209Z,-68
2023-03-18T21:13:39.495Z,-66
2023-03-18T21:18:49.986Z,-67
2023-03-18T21:23:55.011Z,-66
2023-03-18T21:28:57.693Z,-67
2023-03-18T21:34:00.186Z,-67
2023-03-18T21:39:01.663Z,-65
2023-03-18T21:44:03.439Z,-67
2023-03-18T21:49:05.911Z,-69
2023-03-18T21:54:18.475Z,-67
2023-03-18T21:59:20.024Z,-67
2023-03-18T22:04:22.222Z,-67
2023-03-18T22:09:26.604Z,-70
2023-03-18T22:14:28.225Z,-68
2023-03-18T22:19:29.757Z,-67
2023-03-18T22:24:31.298Z,-69
2023-03-18T22:29:32.825Z,-66
2023-03-18T22:34:34.349Z,-66
2023-03-18T22:39:35.817Z,-68
2023-03-18T22:44:37.310Z,-68
2023-03-18T22:49:39.162Z,-67
2023-03-18T22:54:40.832Z,-67
2023-03-18T22:59:42.351Z,-67
2023-03-18T23:04:44.618Z,-67
2023-03-18T23:09:56.288Z,-68
2023-03-18T23:14:59.238Z,-68
2023-03-18T23:20:00.879Z,-68
2023-03-18T23:25:03.392Z,-68
2023-03-18T23:30:06.821Z,-69
2023-03-18T23:35:09.451Z,-68
2023-03-18T23:40:11.597Z,-69
2023-03-18T23:45:13.369Z,-69
2023-03-18T23:50:14.973Z,-67
2023-03-18T23:55:33.205Z,-67
